sensor_id;sensor_type;location;lat;lon;timestamp;P1;durP1;ratioP1;P2;durP2;ratioP2
51732;SDS011;39139;53.144;6.244;2022-07-18T00:01:37;4.50;;;3.47;;
51732;SDS011;39139;53.144;6.244;2022-07-18T00:04:02;4.75;;;3.90;;
51732;SDS011;39139;53.144;6.244;2022-07-18T00:06:28;3.70;;;3.40;;
51732;SDS011;39139;53.144;6.244;2022-07-18T00:08:54;11.00;;;4.45;;
51732;SDS011;39139;53.144;6.244;2022-07-18T00:11:20;4.80;;;3.47;;
51732;SDS011;39139;53.144;6.244;2022-07-18T00:13:46;4.78;;;3.75;;
51732;SDS011;39139;53.144;6.244;2022-07-18T00:16:11;5.88;;;3.70;;
51732;SDS011;39139;53.144;6.244;2022-07-18T00:18:37;4.18;;;3.88;;
51732;SDS011;39139;53.144;6.244;2022-07-18T00:21:03;7.43;;;3.92;;
51732;SDS011;39139;53.144;6.244;2022-07-18T00:23:30;3.92;;;3.45;;
51732;SDS011;39139;53.144;6.244;2022-07-18T00:25:55;6.25;;;3.70;;
51732;SDS011;39139;53.144;6.244;2022-07-18T00:28:21;10.38;;;4.60;;
51732;SDS011;39139;53.144;6.244;2022-07-18T00:30:47;5.28;;;4.57;;
51732;SDS011;39139;53.144;6.244;2022-07-18T00:33:12;5.75;;;4.07;;
51732;SDS011;39139;53.144;6.244;2022-07-18T00:35:38;5.20;;;4.45;;
51732;SDS011;39139;53.144;6.244;2022-07-18T00:38:04;5.88;;;5.15;;
51732;SDS011;39139;53.144;6.244;2022-07-18T00:40:30;7.35;;;4.97;;
51732;SDS011;39139;53.144;6.244;2022-07-18T00:42:56;9.45;;;5.40;;
51732;SDS011;39139;53.144;6.244;2022-07-18T00:45:22;5.65;;;5.25;;
51732;SDS011;39139;53.144;6.244;2022-07-18T00:47:48;6.10;;;5.15;;
51732;SDS011;39139;53.144;6.244;2022-07-18T00:50:16;5.53;;;5.13;;
51732;SDS011;39139;53.144;6.244;2022-07-18T00:52:44;6.45;;;5.75;;
51732;SDS011;39139;53.144;6.244;2022-07-18T00:55:10;5.60;;;5.13;;
51732;SDS011;39139;53.144;6.244;2022-07-18T00:57:36;8.10;;;6.10;;
51732;SDS011;39139;53.144;6.244;2022-07-18T01:00:04;7.25;;;5.80;;
51732;SDS011;39139;53.144;6.244;2022-07-18T01:02:50;6.05;;;5.47;;
51732;SDS011;39139;53.144;6.244;2022-07-18T01:05:15;7.60;;;5.55;;
51732;SDS011;39139;53.144;6.244;2022-07-18T01:07:41;5.72;;;5.22;;
51732;SDS011;39139;53.144;6.244;2022-07-18T01:10:07;6.75;;;4.50;;
51732;SDS011;39139;53.144;6.244;2022-07-18T01:12:33;4.75;;;4.35;;
51732;SDS011;39139;53.144;6.244;2022-07-18T01:14:58;4.80;;;4.38;;
51732;SDS011;39139;53.144;6.244;2022-07-18T01:17:24;4.05;;;3.60;;
51732;SDS011;39139;53.144;6.244;2022-07-18T01:19:50;6.78;;;3.67;;
51732;SDS011;39139;53.144;6.244;2022-07-18T01:22:16;4.25;;;3.28;;
51732;SDS011;39139;53.144;6.244;2022-07-18T01:24:44;5.75;;;3.58;;
51732;SDS011;39139;53.144;6.244;2022-07-18T01:27:16;3.70;;;3.40;;
51732;SDS011;39139;53.144;6.244;2022-07-18T01:29:44;4.60;;;4.07;;
51732;SDS011;39139;53.144;6.244;2022-07-18T01:32:11;4.78;;;3.58;;
51732;SDS011;39139;53.144;6.244;2022-07-18T01:34:37;8.80;;;3.60;;
51732;SDS011;39139;53.144;6.244;2022-07-18T01:37:04;4.55;;;4.25;;
51732;SDS011;39139;53.144;6.244;2022-07-18T01:39:30;5.40;;;4.22;;
51732;SDS011;39139;53.144;6.244;2022-07-18T01:41:56;6.57;;;4.75;;
51732;SDS011;39139;53.144;6.244;2022-07-18T01:44:23;5.68;;;5.07;;
51732;SDS011;39139;53.144;6.244;2022-07-18T01:46:50;6.88;;;5.38;;
51732;SDS011;39139;53.144;6.244;2022-07-18T01:49:16;7.00;;;6.15;;
51732;SDS011;39139;53.144;6.244;2022-07-18T01:51:49;7.63;;;6.72;;
51732;SDS011;39139;53.144;6.244;2022-07-18T01:54:18;8.90;;;5.93;;
51732;SDS011;39139;53.144;6.244;2022-07-18T01:56:45;7.50;;;6.65;;
51732;SDS011;39139;53.144;6.244;2022-07-18T01:59:10;7.28;;;5.82;;
51732;SDS011;39139;53.144;6.244;2022-07-18T02:01:36;7.35;;;6.63;;
51732;SDS011;39139;53.144;6.244;2022-07-18T02:04:02;10.88;;;6.85;;
51732;SDS011;39139;53.144;6.244;2022-07-18T02:06:28;11.38;;;7.03;;
51732;SDS011;39139;53.144;6.244;2022-07-18T02:08:53;9.77;;;7.13;;
51732;SDS011;39139;53.144;6.244;2022-07-18T02:11:19;9.52;;;6.70;;
51732;SDS011;39139;53.144;6.244;2022-07-18T02:13:44;10.68;;;6.90;;
51732;SDS011;39139;53.144;6.244;2022-07-18T02:16:10;9.35;;;8.40;;
51732;SDS011;39139;53.144;6.244;2022-07-18T02:18:36;9.68;;;8.23;;
51732;SDS011;39139;53.144;6.244;2022-07-18T02:21:01;9.95;;;8.48;;
51732;SDS011;39139;53.144;6.244;2022-07-18T02:23:27;10.55;;;8.73;;
51732;SDS011;39139;53.144;6.244;2022-07-18T02:25:53;10.25;;;9.15;;
51732;SDS011;39139;53.144;6.244;2022-07-18T02:28:19;9.95;;;8.10;;
51732;SDS011;39139;53.144;6.244;2022-07-18T02:30:45;14.02;;;9.88;;
51732;SDS011;39139;53.144;6.244;2022-07-18T02:33:13;11.15;;;9.80;;
51732;SDS011;39139;53.144;6.244;2022-07-18T02:35:39;13.37;;;10.17;;
51732;SDS011;39139;53.144;6.244;2022-07-18T02:38:05;15.30;;;10.25;;
51732;SDS011;39139;53.144;6.244;2022-07-18T02:40:30;14.57;;;9.00;;
51732;SDS011;39139;53.144;6.244;2022-07-18T02:42:56;11.30;;;9.93;;
51732;SDS011;39139;53.144;6.244;2022-07-18T02:45:21;11.02;;;9.52;;
51732;SDS011;39139;53.144;6.244;2022-07-18T02:47:47;13.88;;;10.60;;
51732;SDS011;39139;53.144;6.244;2022-07-18T02:50:12;11.80;;;9.70;;
51732;SDS011;39139;53.144;6.244;2022-07-18T02:52:40;11.23;;;10.00;;
51732;SDS011;39139;53.144;6.244;2022-07-18T02:55:06;15.02;;;10.73;;
51732;SDS011;39139;53.144;6.244;2022-07-18T02:57:33;12.30;;;9.80;;
51732;SDS011;39139;53.144;6.244;2022-07-18T02:59:58;13.85;;;9.85;;
51732;SDS011;39139;53.144;6.244;2022-07-18T03:02:24;12.25;;;10.95;;
51732;SDS011;39139;53.144;6.244;2022-07-18T03:04:50;13.32;;;10.07;;
51732;SDS011;39139;53.144;6.244;2022-07-18T03:07:16;13.05;;;9.73;;
51732;SDS011;39139;53.144;6.244;2022-07-18T03:09:41;12.75;;;10.13;;
51732;SDS011;39139;53.144;6.244;2022-07-18T03:12:07;13.00;;;9.63;;
51732;SDS011;39139;53.144;6.244;2022-07-18T03:14:33;14.68;;;10.45;;
51732;SDS011;39139;53.144;6.244;2022-07-18T03:16:58;12.00;;;10.23;;
51732;SDS011;39139;53.144;6.244;2022-07-18T03:19:25;12.18;;;9.95;;
51732;SDS011;39139;53.144;6.244;2022-07-18T03:21:50;12.80;;;10.63;;
51732;SDS011;39139;53.144;6.244;2022-07-18T03:24:16;11.25;;;10.07;;
51732;SDS011;39139;53.144;6.244;2022-07-18T03:26:42;17.85;;;11.00;;
51732;SDS011;39139;53.144;6.244;2022-07-18T03:29:09;15.73;;;11.15;;
51732;SDS011;39139;53.144;6.244;2022-07-18T03:31:35;13.55;;;10.68;;
51732;SDS011;39139;53.144;6.244;2022-07-18T03:34:01;15.10;;;10.90;;
51732;SDS011;39139;53.144;6.244;2022-07-18T03:36:28;11.98;;;10.77;;
51732;SDS011;39139;53.144;6.244;2022-07-18T03:38:54;13.25;;;10.25;;
51732;SDS011;39139;53.144;6.244;2022-07-18T03:41:19;14.10;;;11.23;;
51732;SDS011;39139;53.144;6.244;2022-07-18T03:43:45;15.45;;;10.43;;
51732;SDS011;39139;53.144;6.244;2022-07-18T03:46:11;14.10;;;11.00;;
51732;SDS011;39139;53.144;6.244;2022-07-18T03:48:36;15.20;;;10.43;;
51732;SDS011;39139;53.144;6.244;2022-07-18T03:51:02;11.73;;;9.82;;
51732;SDS011;39139;53.144;6.244;2022-07-18T03:53:29;15.98;;;10.93;;
51732;SDS011;39139;53.144;6.244;2022-07-18T03:55:55;14.45;;;10.65;;
51732;SDS011;39139;53.144;6.244;2022-07-18T03:58:20;15.57;;;10.55;;
51732;SDS011;39139;53.144;6.244;2022-07-18T04:00:46;13.63;;;10.73;;
51732;SDS011;39139;53.144;6.244;2022-07-18T04:03:11;17.52;;;11.05;;
51732;SDS011;39139;53.144;6.244;2022-07-18T04:05:37;10.98;;;9.82;;
51732;SDS011;39139;53.144;6.244;2022-07-18T04:08:03;11.52;;;9.38;;
51732;SDS011;39139;53.144;6.244;2022-07-18T04:10:29;13.18;;;10.13;;
51732;SDS011;39139;53.144;6.244;2022-07-18T04:12:55;14.18;;;9.70;;
51732;SDS011;39139;53.144;6.244;2022-07-18T04:15:22;14.02;;;10.10;;
51732;SDS011;39139;53.144;6.244;2022-07-18T04:17:49;14.57;;;8.88;;
51732;SDS011;39139;53.144;6.244;2022-07-18T04:20:15;15.88;;;10.63;;
51732;SDS011;39139;53.144;6.244;2022-07-18T04:22:49;14.90;;;10.10;;
51732;SDS011;39139;53.144;6.244;2022-07-18T04:25:17;17.65;;;10.38;;
51732;SDS011;39139;53.144;6.244;2022-07-18T04:27:44;18.73;;;10.32;;
51732;SDS011;39139;53.144;6.244;2022-07-18T04:30:10;12.00;;;9.95;;
51732;SDS011;39139;53.144;6.244;2022-07-18T04:32:37;11.27;;;9.23;;
51732;SDS011;39139;53.144;6.244;2022-07-18T04:35:03;11.20;;;8.95;;
51732;SDS011;39139;53.144;6.244;2022-07-18T04:37:30;13.88;;;9.05;;
51732;SDS011;39139;53.144;6.244;2022-07-18T04:39:56;11.80;;;9.57;;
51732;SDS011;39139;53.144;6.244;2022-07-18T04:42:22;12.93;;;9.23;;
51732;SDS011;39139;53.144;6.244;2022-07-18T04:44:48;10.98;;;8.88;;
51732;SDS011;39139;53.144;6.244;2022-07-18T04:47:13;12.27;;;8.90;;
51732;SDS011;39139;53.144;6.244;2022-07-18T04:49:39;20.38;;;9.07;;
51732;SDS011;39139;53.144;6.244;2022-07-18T04:52:04;18.15;;;9.75;;
51732;SDS011;39139;53.144;6.244;2022-07-18T04:54:30;11.95;;;8.15;;
51732;SDS011;39139;53.144;6.244;2022-07-18T04:56:56;13.90;;;8.13;;
51732;SDS011;39139;53.144;6.244;2022-07-18T04:59:21;9.93;;;6.65;;
51732;SDS011;39139;53.144;6.244;2022-07-18T05:01:47;10.13;;;7.65;;
51732;SDS011;39139;53.144;6.244;2022-07-18T05:04:12;9.00;;;7.47;;
51732;SDS011;39139;53.144;6.244;2022-07-18T05:06:38;10.35;;;7.03;;
51732;SDS011;39139;53.144;6.244;2022-07-18T05:09:03;9.68;;;6.88;;
51732;SDS011;39139;53.144;6.244;2022-07-18T05:11:29;10.77;;;7.53;;
51732;SDS011;39139;53.144;6.244;2022-07-18T05:13:55;10.00;;;6.93;;
51732;SDS011;39139;53.144;6.244;2022-07-18T05:16:21;10.77;;;7.40;;
51732;SDS011;39139;53.144;6.244;2022-07-18T05:18:46;8.20;;;6.95;;
51732;SDS011;39139;53.144;6.244;2022-07-18T05:21:12;9.48;;;6.85;;
51732;SDS011;39139;53.144;6.244;2022-07-18T05:23:38;8.93;;;7.05;;
51732;SDS011;39139;53.144;6.244;2022-07-18T05:26:03;9.05;;;6.55;;
51732;SDS011;39139;53.144;6.244;2022-07-18T05:28:29;9.15;;;6.95;;
51732;SDS011;39139;53.144;6.244;2022-07-18T05:30:55;12.57;;;7.10;;
51732;SDS011;39139;53.144;6.244;2022-07-18T05:33:20;10.05;;;6.72;;
51732;SDS011;39139;53.144;6.244;2022-07-18T05:35:46;10.50;;;6.93;;
51732;SDS011;39139;53.144;6.244;2022-07-18T05:38:12;12.25;;;6.75;;
51732;SDS011;39139;53.144;6.244;2022-07-18T05:40:37;8.18;;;6.60;;
51732;SDS011;39139;53.144;6.244;2022-07-18T05:43:03;11.07;;;6.97;;
51732;SDS011;39139;53.144;6.244;2022-07-18T05:45:28;8.80;;;6.93;;
51732;SDS011;39139;53.144;6.244;2022-07-18T05:47:54;9.82;;;6.43;;
51732;SDS011;39139;53.144;6.244;2022-07-18T05:50:20;10.02;;;6.90;;
51732;SDS011;39139;53.144;6.244;2022-07-18T05:52:47;10.95;;;6.28;;
51732;SDS011;39139;53.144;6.244;2022-07-18T05:55:13;8.65;;;6.47;;
51732;SDS011;39139;53.144;6.244;2022-07-18T05:57:38;7.55;;;5.95;;
51732;SDS011;39139;53.144;6.244;2022-07-18T06:00:04;10.73;;;6.35;;
51732;SDS011;39139;53.144;6.244;2022-07-18T06:02:32;9.88;;;6.55;;
51732;SDS011;39139;53.144;6.244;2022-07-18T06:04:58;9.63;;;6.32;;
51732;SDS011;39139;53.144;6.244;2022-07-18T06:07:24;12.75;;;6.35;;
51732;SDS011;39139;53.144;6.244;2022-07-18T06:09:50;11.25;;;6.32;;
51732;SDS011;39139;53.144;6.244;2022-07-18T06:12:16;10.25;;;6.57;;
51732;SDS011;39139;53.144;6.244;2022-07-18T06:14:41;9.98;;;6.47;;
51732;SDS011;39139;53.144;6.244;2022-07-18T06:17:07;14.07;;;6.53;;
51732;SDS011;39139;53.144;6.244;2022-07-18T06:19:33;7.55;;;5.65;;
51732;SDS011;39139;53.144;6.244;2022-07-18T06:21:58;6.38;;;5.75;;
51732;SDS011;39139;53.144;6.244;2022-07-18T06:24:24;8.27;;;6.18;;
51732;SDS011;39139;53.144;6.244;2022-07-18T06:26:50;6.60;;;5.60;;
51732;SDS011;39139;53.144;6.244;2022-07-18T06:29:16;8.38;;;6.40;;
51732;SDS011;39139;53.144;6.244;2022-07-18T06:31:42;8.10;;;5.68;;
51732;SDS011;39139;53.144;6.244;2022-07-18T06:34:08;7.90;;;6.55;;
51732;SDS011;39139;53.144;6.244;2022-07-18T06:36:33;9.45;;;6.25;;
51732;SDS011;39139;53.144;6.244;2022-07-18T06:38:59;7.38;;;5.13;;
51732;SDS011;39139;53.144;6.244;2022-07-18T06:41:25;5.78;;;4.70;;
51732;SDS011;39139;53.144;6.244;2022-07-18T06:43:51;7.65;;;4.65;;
51732;SDS011;39139;53.144;6.244;2022-07-18T06:46:16;7.57;;;4.88;;
51732;SDS011;39139;53.144;6.244;2022-07-18T06:48:42;7.13;;;4.90;;
51732;SDS011;39139;53.144;6.244;2022-07-18T06:51:07;9.30;;;4.97;;
51732;SDS011;39139;53.144;6.244;2022-07-18T06:53:34;10.95;;;4.30;;
51732;SDS011;39139;53.144;6.244;2022-07-18T06:55:59;4.55;;;3.60;;
51732;SDS011;39139;53.144;6.244;2022-07-18T06:58:30;12.85;;;3.60;;
51732;SDS011;39139;53.144;6.244;2022-07-18T07:00:56;5.55;;;3.42;;
51732;SDS011;39139;53.144;6.244;2022-07-18T07:03:22;5.60;;;3.10;;
51732;SDS011;39139;53.144;6.244;2022-07-18T07:05:47;8.90;;;3.35;;
51732;SDS011;39139;53.144;6.244;2022-07-18T07:08:13;3.13;;;2.67;;
51732;SDS011;39139;53.144;6.244;2022-07-18T07:10:39;4.38;;;2.65;;
51732;SDS011;39139;53.144;6.244;2022-07-18T07:13:05;4.22;;;2.67;;
51732;SDS011;39139;53.144;6.244;2022-07-18T07:15:31;3.72;;;2.42;;
51732;SDS011;39139;53.144;6.244;2022-07-18T07:17:56;3.13;;;2.50;;
51732;SDS011;39139;53.144;6.244;2022-07-18T07:20:22;6.63;;;2.17;;
51732;SDS011;39139;53.144;6.244;2022-07-18T07:22:49;6.63;;;2.63;;
51732;SDS011;39139;53.144;6.244;2022-07-18T07:25:16;7.50;;;2.83;;
51732;SDS011;39139;53.144;6.244;2022-07-18T07:27:43;6.10;;;2.40;;
51732;SDS011;39139;53.144;6.244;2022-07-18T07:30:09;5.25;;;2.28;;
51732;SDS011;39139;53.144;6.244;2022-07-18T07:32:37;7.93;;;2.45;;
51732;SDS011;39139;53.144;6.244;2022-07-18T07:35:07;6.15;;;2.40;;
51732;SDS011;39139;53.144;6.244;2022-07-18T07:37:42;4.68;;;2.50;;
51732;SDS011;39139;53.144;6.244;2022-07-18T07:40:10;3.65;;;1.60;;
51732;SDS011;39139;53.144;6.244;2022-07-18T07:42:36;2.92;;;2.00;;
51732;SDS011;39139;53.144;6.244;2022-07-18T07:45:03;3.97;;;2.20;;
51732;SDS011;39139;53.144;6.244;2022-07-18T07:47:29;3.25;;;1.92;;
51732;SDS011;39139;53.144;6.244;2022-07-18T07:49:55;3.28;;;2.08;;
51732;SDS011;39139;53.144;6.244;2022-07-18T07:52:21;2.88;;;1.83;;
51732;SDS011;39139;53.144;6.244;2022-07-18T07:54:48;5.93;;;2.30;;
51732;SDS011;39139;53.144;6.244;2022-07-18T07:57:14;5.22;;;1.80;;
51732;SDS011;39139;53.144;6.244;2022-07-18T07:59:40;6.10;;;2.03;;
51732;SDS011;39139;53.144;6.244;2022-07-18T08:02:06;3.83;;;1.77;;
51732;SDS011;39139;53.144;6.244;2022-07-18T08:04:31;2.10;;;1.33;;
51732;SDS011;39139;53.144;6.244;2022-07-18T08:06:57;4.88;;;2.08;;
51732;SDS011;39139;53.144;6.244;2022-07-18T08:09:23;5.07;;;1.48;;
51732;SDS011;39139;53.144;6.244;2022-07-18T08:11:49;4.03;;;1.95;;
51732;SDS011;39139;53.144;6.244;2022-07-18T08:14:14;5.10;;;1.50;;
51732;SDS011;39139;53.144;6.244;2022-07-18T08:16:41;4.35;;;1.73;;
51732;SDS011;39139;53.144;6.244;2022-07-18T08:19:06;4.70;;;1.67;;
51732;SDS011;39139;53.144;6.244;2022-07-18T08:21:32;2.70;;;1.40;;
51732;SDS011;39139;53.144;6.244;2022-07-18T08:23:58;2.20;;;1.33;;
51732;SDS011;39139;53.144;6.244;2022-07-18T08:26:24;4.63;;;1.52;;
51732;SDS011;39139;53.144;6.244;2022-07-18T08:28:49;3.97;;;1.80;;
51732;SDS011;39139;53.144;6.244;2022-07-18T08:31:15;5.97;;;1.63;;
51732;SDS011;39139;53.144;6.244;2022-07-18T08:33:43;4.93;;;1.33;;
51732;SDS011;39139;53.144;6.244;2022-07-18T08:36:09;2.78;;;1.27;;
51732;SDS011;39139;53.144;6.244;2022-07-18T08:38:34;8.18;;;1.67;;
51732;SDS011;39139;53.144;6.244;2022-07-18T08:41:00;1.92;;;1.20;;
51732;SDS011;39139;53.144;6.244;2022-07-18T08:43:26;1.98;;;1.02;;
51732;SDS011;39139;53.144;6.244;2022-07-18T08:45:54;3.25;;;1.33;;
51732;SDS011;39139;53.144;6.244;2022-07-18T08:48:21;5.55;;;1.40;;
51732;SDS011;39139;53.144;6.244;2022-07-18T08:50:47;3.15;;;1.40;;
51732;SDS011;39139;53.144;6.244;2022-07-18T08:53:14;4.82;;;1.63;;
51732;SDS011;39139;53.144;6.244;2022-07-18T08:55:41;6.82;;;1.58;;
51732;SDS011;39139;53.144;6.244;2022-07-18T08:58:07;7.15;;;1.63;;
51732;SDS011;39139;53.144;6.244;2022-07-18T09:00:35;6.10;;;2.03;;
51732;SDS011;39139;53.144;6.244;2022-07-18T09:03:02;7.10;;;1.88;;
51732;SDS011;39139;53.144;6.244;2022-07-18T09:05:28;6.30;;;1.75;;
51732;SDS011;39139;53.144;6.244;2022-07-18T09:08:12;4.18;;;1.35;;
51732;SDS011;39139;53.144;6.244;2022-07-18T09:18:34;3.13;;;1.33;;
51732;SDS011;39139;53.144;6.244;2022-07-18T09:21:23;2.22;;;1.25;;
51732;SDS011;39139;53.144;6.244;2022-07-18T09:23:49;2.20;;;1.27;;
51732;SDS011;39139;53.144;6.244;2022-07-18T09:26:37;3.85;;;1.38;;
51732;SDS011;39139;53.144;6.244;2022-07-18T09:29:04;3.83;;;1.08;;
51732;SDS011;39139;53.144;6.244;2022-07-18T09:31:30;6.13;;;1.08;;
51732;SDS011;39139;53.144;6.244;2022-07-18T09:33:56;1.95;;;1.20;;
51732;SDS011;39139;53.144;6.244;2022-07-18T09:36:23;2.20;;;1.50;;
51732;SDS011;39139;53.144;6.244;2022-07-18T09:38:50;6.97;;;1.20;;
51732;SDS011;39139;53.144;6.244;2022-07-18T09:41:15;4.97;;;1.35;;
51732;SDS011;39139;53.144;6.244;2022-07-18T09:43:46;7.78;;;1.33;;
51732;SDS011;39139;53.144;6.244;2022-07-18T09:46:11;4.75;;;1.60;;
51732;SDS011;39139;53.144;6.244;2022-07-18T09:48:37;4.13;;;1.17;;
51732;SDS011;39139;53.144;6.244;2022-07-18T09:51:06;1.95;;;1.40;;
51732;SDS011;39139;53.144;6.244;2022-07-18T09:53:36;2.47;;;1.30;;
51732;SDS011;39139;53.144;6.244;2022-07-18T09:56:05;3.90;;;1.40;;
51732;SDS011;39139;53.144;6.244;2022-07-18T09:58:33;4.05;;;1.40;;
51732;SDS011;39139;53.144;6.244;2022-07-18T10:01:07;3.72;;;1.40;;
51732;SDS011;39139;53.144;6.244;2022-07-18T10:03:35;5.05;;;1.52;;
51732;SDS011;39139;53.144;6.244;2022-07-18T10:06:02;4.72;;;1.73;;
51732;SDS011;39139;53.144;6.244;2022-07-18T10:08:32;4.07;;;1.90;;
51732;SDS011;39139;53.144;6.244;2022-07-18T10:10:59;3.50;;;1.58;;
51732;SDS011;39139;53.144;6.244;2022-07-18T10:13:27;3.17;;;1.80;;
51732;SDS011;39139;53.144;6.244;2022-07-18T10:15:54;4.90;;;2.08;;
51732;SDS011;39139;53.144;6.244;2022-07-18T10:18:21;4.78;;;1.88;;
51732;SDS011;39139;53.144;6.244;2022-07-18T10:20:58;3.72;;;1.58;;
51732;SDS011;39139;53.144;6.244;2022-07-18T10:26:07;4.30;;;1.23;;
51732;SDS011;39139;53.144;6.244;2022-07-18T10:33:54;4.75;;;1.65;;
51732;SDS011;39139;53.144;6.244;2022-07-18T10:36:35;2.40;;;1.60;;
51732;SDS011;39139;53.144;6.244;2022-07-18T10:39:07;3.60;;;1.42;;
51732;SDS011;39139;53.144;6.244;2022-07-18T10:57:29;1.45;;;1.30;;
51732;SDS011;39139;53.144;6.244;2022-07-18T11:05:01;4.32;;;2.08;;
51732;SDS011;39139;53.144;6.244;2022-07-18T11:07:27;3.47;;;1.55;;
51732;SDS011;39139;53.144;6.244;2022-07-18T11:09:53;2.10;;;1.90;;
51732;SDS011;39139;53.144;6.244;2022-07-18T11:12:31;6.72;;;2.15;;
51732;SDS011;39139;53.144;6.244;2022-07-18T11:15:15;5.13;;;2.05;;
51732;SDS011;39139;53.144;6.244;2022-07-18T11:20:36;2.95;;;2.53;;
51732;SDS011;39139;53.144;6.244;2022-07-18T11:23:03;3.30;;;1.88;;
51732;SDS011;39139;53.144;6.244;2022-07-18T11:25:39;3.05;;;1.92;;
51732;SDS011;39139;53.144;6.244;2022-07-18T11:28:07;3.53;;;2.22;;
51732;SDS011;39139;53.144;6.244;2022-07-18T11:30:34;2.80;;;2.05;;
51732;SDS011;39139;53.144;6.244;2022-07-18T11:32:59;3.97;;;2.30;;
51732;SDS011;39139;53.144;6.244;2022-07-18T11:35:25;2.80;;;2.10;;
51732;SDS011;39139;53.144;6.244;2022-07-18T11:37:51;2.10;;;1.90;;
51732;SDS011;39139;53.144;6.244;2022-07-18T11:40:18;3.85;;;2.22;;
51732;SDS011;39139;53.144;6.244;2022-07-18T11:42:44;4.75;;;2.30;;
51732;SDS011;39139;53.144;6.244;2022-07-18T11:45:10;3.70;;;1.77;;
51732;SDS011;39139;53.144;6.244;2022-07-18T11:47:53;3.10;;;1.73;;
51732;SDS011;39139;53.144;6.244;2022-07-18T11:50:26;5.15;;;2.85;;
51732;SDS011;39139;53.144;6.244;2022-07-18T11:53:00;3.95;;;2.03;;
51732;SDS011;39139;53.144;6.244;2022-07-18T11:55:33;2.83;;;2.33;;
51732;SDS011;39139;53.144;6.244;2022-07-18T11:58:11;4.35;;;2.47;;
51732;SDS011;39139;53.144;6.244;2022-07-18T12:00:38;2.63;;;2.15;;
51732;SDS011;39139;53.144;6.244;2022-07-18T12:05:39;7.63;;;2.83;;
51732;SDS011;39139;53.144;6.244;2022-07-18T12:08:28;4.72;;;2.05;;
51732;SDS011;39139;53.144;6.244;2022-07-18T12:13:51;4.53;;;2.50;;
51732;SDS011;39139;53.144;6.244;2022-07-18T12:29:32;3.90;;;2.75;;
51732;SDS011;39139;53.144;6.244;2022-07-18T12:32:17;4.95;;;2.30;;
51732;SDS011;39139;53.144;6.244;2022-07-18T12:35:02;3.40;;;2.70;;
51732;SDS011;39139;53.144;6.244;2022-07-18T12:37:36;5.85;;;3.15;;
51732;SDS011;39139;53.144;6.244;2022-07-18T12:40:04;4.45;;;2.88;;
51732;SDS011;39139;53.144;6.244;2022-07-18T12:42:35;6.13;;;3.08;;
51732;SDS011;39139;53.144;6.244;2022-07-18T12:45:03;6.30;;;3.53;;
51732;SDS011;39139;53.144;6.244;2022-07-18T12:47:30;4.25;;;2.85;;
51732;SDS011;39139;53.144;6.244;2022-07-18T12:49:56;4.63;;;3.63;;
51732;SDS011;39139;53.144;6.244;2022-07-18T12:52:22;4.03;;;3.50;;
51732;SDS011;39139;53.144;6.244;2022-07-18T12:54:48;6.38;;;3.53;;
51732;SDS011;39139;53.144;6.244;2022-07-18T12:57:14;5.93;;;3.08;;
51732;SDS011;39139;53.144;6.244;2022-07-18T12:59:40;7.53;;;3.67;;
51732;SDS011;39139;53.144;6.244;2022-07-18T13:02:06;7.32;;;3.55;;
51732;SDS011;39139;53.144;6.244;2022-07-18T13:04:32;6.53;;;3.38;;
51732;SDS011;39139;53.144;6.244;2022-07-18T13:06:57;5.15;;;3.45;;
51732;SDS011;39139;53.144;6.244;2022-07-18T13:09:23;6.47;;;2.97;;
51732;SDS011;39139;53.144;6.244;2022-07-18T13:11:48;5.93;;;3.10;;
51732;SDS011;39139;53.144;6.244;2022-07-18T13:14:15;3.67;;;2.90;;
51732;SDS011;39139;53.144;6.244;2022-07-18T13:16:41;5.20;;;2.85;;
51732;SDS011;39139;53.144;6.244;2022-07-18T13:19:12;7.25;;;3.15;;
51732;SDS011;39139;53.144;6.244;2022-07-18T13:21:39;3.33;;;2.70;;
51732;SDS011;39139;53.144;6.244;2022-07-18T13:24:04;4.50;;;3.22;;
51732;SDS011;39139;53.144;6.244;2022-07-18T13:26:30;4.35;;;2.83;;
51732;SDS011;39139;53.144;6.244;2022-07-18T13:28:56;5.38;;;2.47;;
51732;SDS011;39139;53.144;6.244;2022-07-18T13:31:21;3.72;;;2.35;;
51732;SDS011;39139;53.144;6.244;2022-07-18T13:33:47;6.03;;;3.17;;
51732;SDS011;39139;53.144;6.244;2022-07-18T13:36:13;7.18;;;2.97;;
51732;SDS011;39139;53.144;6.244;2022-07-18T13:38:40;3.00;;;2.80;;
51732;SDS011;39139;53.144;6.244;2022-07-18T13:41:05;3.35;;;2.70;;
51732;SDS011;39139;53.144;6.244;2022-07-18T13:43:31;3.65;;;2.42;;
51732;SDS011;39139;53.144;6.244;2022-07-18T13:45:57;2.90;;;2.67;;
51732;SDS011;39139;53.144;6.244;2022-07-18T13:48:23;3.83;;;2.85;;
51732;SDS011;39139;53.144;6.244;2022-07-18T13:50:48;4.32;;;3.00;;
51732;SDS011;39139;53.144;6.244;2022-07-18T13:53:14;3.85;;;2.40;;
51732;SDS011;39139;53.144;6.244;2022-07-18T13:55:39;4.72;;;2.42;;
51732;SDS011;39139;53.144;6.244;2022-07-18T13:58:05;4.65;;;2.72;;
51732;SDS011;39139;53.144;6.244;2022-07-18T14:00:31;8.43;;;3.55;;
51732;SDS011;39139;53.144;6.244;2022-07-18T14:02:56;3.05;;;2.75;;
51732;SDS011;39139;53.144;6.244;2022-07-18T14:05:22;4.45;;;3.00;;
51732;SDS011;39139;53.144;6.244;2022-07-18T14:07:47;3.30;;;2.50;;
51732;SDS011;39139;53.144;6.244;2022-07-18T14:10:13;5.53;;;2.30;;
51732;SDS011;39139;53.144;6.244;2022-07-18T14:12:40;6.70;;;2.85;;
51732;SDS011;39139;53.144;6.244;2022-07-18T14:15:06;3.60;;;2.60;;
51732;SDS011;39139;53.144;6.244;2022-07-18T14:17:33;5.57;;;2.60;;
51732;SDS011;39139;53.144;6.244;2022-07-18T14:19:59;5.95;;;2.10;;
51732;SDS011;39139;53.144;6.244;2022-07-18T14:22:25;4.90;;;3.03;;
51732;SDS011;39139;53.144;6.244;2022-07-18T14:24:51;4.80;;;2.13;;
51732;SDS011;39139;53.144;6.244;2022-07-18T14:27:16;2.60;;;2.40;;
51732;SDS011;39139;53.144;6.244;2022-07-18T14:29:42;5.22;;;2.88;;
51732;SDS011;39139;53.144;6.244;2022-07-18T14:32:08;4.80;;;2.40;;
51732;SDS011;39139;53.144;6.244;2022-07-18T14:34:34;5.43;;;2.53;;
51732;SDS011;39139;53.144;6.244;2022-07-18T14:37:00;2.30;;;1.98;;
51732;SDS011;39139;53.144;6.244;2022-07-18T14:39:25;3.50;;;2.72;;
51732;SDS011;39139;53.144;6.244;2022-07-18T14:41:51;4.32;;;3.10;;
51732;SDS011;39139;53.144;6.244;2022-07-18T14:44:17;2.80;;;2.60;;
51732;SDS011;39139;53.144;6.244;2022-07-18T14:46:42;6.10;;;2.83;;
51732;SDS011;39139;53.144;6.244;2022-07-18T14:49:08;2.35;;;2.25;;
51732;SDS011;39139;53.144;6.244;2022-07-18T14:51:34;3.08;;;2.55;;
51732;SDS011;39139;53.144;6.244;2022-07-18T14:53:59;2.53;;;2.35;;
51732;SDS011;39139;53.144;6.244;2022-07-18T14:56:25;5.97;;;2.92;;
51732;SDS011;39139;53.144;6.244;2022-07-18T14:58:51;4.25;;;3.05;;
51732;SDS011;39139;53.144;6.244;2022-07-18T15:01:16;5.35;;;2.70;;
51732;SDS011;39139;53.144;6.244;2022-07-18T15:03:44;2.53;;;2.15;;
51732;SDS011;39139;53.144;6.244;2022-07-18T15:06:11;2.88;;;2.42;;
51732;SDS011;39139;53.144;6.244;2022-07-18T15:08:37;3.55;;;2.10;;
51732;SDS011;39139;53.144;6.244;2022-07-18T15:11:02;3.88;;;2.20;;
51732;SDS011;39139;53.144;6.244;2022-07-18T15:13:28;4.43;;;2.10;;
51732;SDS011;39139;53.144;6.244;2022-07-18T15:15:54;2.92;;;2.67;;
51732;SDS011;39139;53.144;6.244;2022-07-18T15:18:19;3.60;;;1.90;;
51732;SDS011;39139;53.144;6.244;2022-07-18T15:20:45;3.13;;;2.45;;
51732;SDS011;39139;53.144;6.244;2022-07-18T15:23:11;3.65;;;2.42;;
51732;SDS011;39139;53.144;6.244;2022-07-18T15:25:36;3.25;;;2.30;;
51732;SDS011;39139;53.144;6.244;2022-07-18T15:28:02;4.55;;;2.45;;
51732;SDS011;39139;53.144;6.244;2022-07-18T15:30:28;4.07;;;2.00;;
51732;SDS011;39139;53.144;6.244;2022-07-18T15:32:53;2.33;;;1.88;;
51732;SDS011;39139;53.144;6.244;2022-07-18T15:35:20;3.13;;;2.33;;
51732;SDS011;39139;53.144;6.244;2022-07-18T15:37:46;7.32;;;2.10;;
51732;SDS011;39139;53.144;6.244;2022-07-18T15:40:11;2.97;;;2.30;;